createdAt,value
2018-04-17T00:00:06.488Z,13.67
2018-04-17T00:02:38.999Z,12.00
2018-04-17T00:05:11.528Z,25.80
2018-04-17T00:07:44.111Z,27.97
2018-04-17T00:10:16.630Z,12.70
2018-04-17T00:12:49.123Z,38.40
2018-04-17T00:15:21.637Z,17.83
2018-04-17T00:17:54.128Z,10.97
2018-04-17T00:20:26.643Z,24.27
2018-04-17T00:22:59.137Z,14.17
2018-04-17T00:25:31.703Z,17.93
2018-04-17T00:28:04.198Z,13.23
2018-04-17T00:30:36.707Z,13.17
2018-04-17T00:33:09.255Z,12.47
2018-04-17T00:35:41.841Z,8.57
2018-04-17T00:38:14.332Z,13.57
2018-04-17T00:40:46.856Z,13.67
2018-04-17T00:43:19.352Z,12.87
2018-04-17T00:45:51.879Z,15.00
2018-04-17T00:48:24.370Z,22.10
2018-04-17T00:50:56.905Z,13.60
2018-04-17T00:53:41.205Z,8.73
2018-04-17T00:56:13.806Z,7.13
2018-04-17T00:58:46.299Z,3.00
2018-04-17T01:01:18.823Z,10.83
2018-04-17T01:03:51.378Z,12.17
2018-04-17T01:06:24.935Z,17.40
2018-04-17T01:08:57.436Z,12.57
2018-04-17T01:11:30.683Z,13.13
2018-04-17T01:14:03.172Z,7.87
2018-04-17T01:16:35.763Z,8.47
2018-04-17T01:19:08.336Z,10.13
2018-04-17T01:21:40.866Z,13.37
2018-04-17T01:24:13.371Z,11.30
2018-04-17T01:26:45.890Z,8.93
2018-04-17T01:29:18.444Z,8.90
2018-04-17T01:31:50.955Z,7.23
2018-04-17T01:34:23.447Z,13.17
2018-04-17T01:36:55.961Z,5.87
2018-04-17T01:39:28.468Z,4.13
2018-04-17T01:42:00.997Z,5.07
2018-04-17T01:44:33.586Z,29.30
2018-04-17T01:47:06.107Z,7.13
2018-04-17T01:49:38.602Z,6.97
2018-04-17T01:52:11.112Z,7.83
2018-04-17T01:54:43.599Z,7.57
2018-04-17T01:57:16.203Z,3.43
2018-04-17T01:59:48.710Z,5.07
2018-04-17T02:02:21.271Z,7.20
2018-04-17T02:04:53.769Z,13.60
2018-04-17T02:07:26.278Z,16.47
2018-04-17T02:09:58.843Z,5.30
2018-04-17T02:12:31.376Z,6.13
2018-04-17T02:15:03.878Z,6.53
2018-04-17T02:17:36.476Z,5.40
2018-04-17T02:20:09.063Z,4.20
2018-04-17T02:22:41.572Z,4.37
2018-04-17T02:25:14.064Z,7.50
2018-04-17T02:27:46.571Z,6.67
2018-04-17T02:30:19.084Z,3.87
2018-04-17T02:32:51.691Z,7.13
2018-04-17T02:35:24.188Z,7.47
2018-04-17T02:37:56.708Z,6.47
2018-04-17T02:40:29.243Z,9.00
2018-04-17T02:43:02.672Z,8.90
2018-04-17T02:45:35.238Z,3.83
2018-04-17T02:48:07.747Z,7.80
2018-04-17T02:50:40.276Z,13.17
2018-04-17T02:53:12.787Z,13.63
2018-04-17T02:55:45.286Z,5.23
2018-04-17T02:58:17.808Z,13.37
2018-04-17T03:00:50.334Z,14.30
2018-04-17T03:03:22.926Z,8.90
2018-04-17T03:05:55.451Z,4.27
2018-04-17T03:08:27.951Z,9.60
2018-04-17T03:11:00.455Z,7.60
2018-04-17T03:13:32.946Z,13.50
2018-04-17T03:16:05.462Z,8.67
2018-04-17T03:18:37.970Z,12.97
2018-04-17T03:21:10.483Z,6.13
2018-04-17T03:23:42.970Z,7.13
2018-04-17T03:26:16.394Z,7.57
2018-04-17T03:28:48.887Z,10.20
2018-04-17T03:31:21.402Z,3.90
2018-04-17T03:33:53.894Z,5.50
2018-04-17T03:36:26.439Z,5.97
2018-04-17T03:38:58.930Z,6.90
2018-04-17T03:41:31.442Z,4.03
2018-04-17T03:44:03.924Z,5.80
2018-04-17T03:46:36.475Z,3.73
2018-04-17T03:49:08.963Z,3.30
2018-04-17T03:51:41.538Z,9.57
2018-04-17T03:54:14.028Z,22.93
2018-04-17T03:56:46.540Z,20.97
2018-04-17T03:59:19.099Z,4.53
2018-04-17T04:01:51.687Z,19.20
2018-04-17T04:04:24.179Z,9.80
2018-04-17T04:06:56.759Z,15.70
2018-04-17T04:09:29.250Z,8.80
2018-04-17T04:12:01.832Z,14.77
2018-04-17T04:14:34.429Z,6.03
2018-04-17T04:17:18.983Z,14.37
2018-04-17T04:20:03.452Z,27.70
2018-04-17T04:22:48.014Z,6.13
2018-04-17T04:25:43.368Z,5.60
2018-04-17T04:28:15.873Z,4.50
2018-04-17T04:30:48.403Z,13.33
2018-04-17T04:33:20.991Z,5.03
2018-04-17T04:35:53.479Z,2.60
2018-04-17T04:38:26.055Z,2.47
2018-04-17T04:40:58.551Z,18.63
2018-04-17T04:43:31.055Z,12.80
2018-04-17T04:46:03.628Z,2.70
2018-04-17T04:48:36.138Z,2.47
2018-04-17T04:51:08.632Z,4.60
2018-04-17T04:53:41.143Z,5.57
2018-04-17T04:56:13.631Z,8.23
2018-04-17T04:58:46.139Z,3.30
2018-04-17T05:01:18.628Z,6.17
2018-04-17T05:03:51.132Z,4.93
2018-04-17T05:06:23.630Z,3.17
2018-04-17T05:08:56.220Z,2.20
2018-04-17T05:11:28.726Z,13.03
2018-04-17T05:14:01.547Z,10.43
2018-04-17T05:16:34.040Z,4.23
2018-04-17T05:19:06.625Z,28.30
2018-04-17T05:21:39.132Z,18.33
2018-04-17T05:24:11.668Z,651.77
2018-04-17T05:26:44.186Z,784.87
2018-04-17T05:29:16.722Z,1436.80
2018-04-17T05:31:49.867Z,717.97
2018-04-17T05:34:22.452Z,1977.82
2018-04-17T05:36:55.046Z,891.67
2018-04-17T05:39:27.571Z,618.65
2018-04-17T05:42:00.092Z,236.60
2018-04-17T05:44:32.619Z,141.90
2018-04-17T05:47:05.118Z,14.60
2018-04-17T05:49:37.656Z,19.55
2018-04-17T05:52:10.158Z,4.95
2018-04-17T05:54:42.687Z,223.93
2018-04-17T05:57:15.181Z,25.60
2018-04-17T05:59:47.692Z,9.23
2018-04-17T06:02:20.281Z,13.93
2018-04-17T06:04:52.786Z,15.75
2018-04-17T06:07:25.286Z,13.82
2018-04-17T06:09:57.830Z,5.75
2018-04-17T06:12:30.345Z,12.60
2018-04-17T06:15:02.836Z,15.40
2018-04-17T06:17:35.357Z,11.30
2018-04-17T06:20:07.847Z,12.40
2018-04-17T06:22:40.355Z,10.93
2018-04-17T06:25:12.855Z,10.73
2018-04-17T06:27:45.428Z,11.00
2018-04-17T06:30:17.928Z,12.40
2018-04-17T06:32:50.500Z,19.15
2018-04-17T06:35:23.000Z,11.00
2018-04-17T06:37:55.522Z,8.23
2018-04-17T06:40:28.056Z,8.70
2018-04-17T06:43:00.578Z,11.00
2018-04-17T06:45:33.091Z,16.42
2018-04-17T06:48:05.608Z,13.60
2018-04-17T06:50:38.109Z,16.00
2018-04-17T06:53:10.623Z,10.60
2018-04-17T06:55:43.119Z,16.55
2018-04-17T06:58:15.655Z,12.93
2018-04-17T07:00:48.146Z,12.40
2018-04-17T07:03:20.705Z,13.27
2018-04-17T07:05:53.203Z,15.55
2018-04-17T07:08:25.799Z,12.35
2018-04-17T07:10:58.372Z,10.20
2018-04-17T07:13:30.973Z,13.07
2018-04-17T07:16:03.558Z,11.02
2018-04-17T07:18:36.067Z,9.60
2018-04-17T07:21:08.557Z,8.55
2018-04-17T07:23:41.104Z,9.85
2018-04-17T07:26:13.598Z,11.48
2018-04-17T07:28:46.143Z,9.63
2018-04-17T07:31:18.636Z,9.20
2018-04-17T07:33:51.148Z,8.32
2018-04-17T07:36:23.642Z,11.52
2018-04-17T07:38:56.159Z,10.48
2018-04-17T07:41:28.654Z,10.90
2018-04-17T07:44:01.175Z,11.93
2018-04-17T07:46:33.694Z,13.40
2018-04-17T07:49:07.084Z,13.32
2018-04-17T07:51:39.687Z,11.88
2018-04-17T07:54:12.424Z,11.02
2018-04-17T07:56:44.927Z,10.68
2018-04-17T07:59:17.448Z,15.48
2018-04-17T08:01:50.016Z,8.25
2018-04-17T08:04:22.637Z,12.98
2018-04-17T08:06:55.151Z,10.70
2018-04-17T08:09:27.673Z,11.98
2018-04-17T08:12:00.804Z,13.75
2018-04-17T08:14:33.328Z,12.00
2018-04-17T08:17:05.820Z,12.32
2018-04-17T08:19:38.339Z,16.52
2018-04-17T08:22:10.842Z,11.85
2018-04-17T08:24:43.362Z,12.75
2018-04-17T08:27:15.898Z,10.48
2018-04-17T08:29:48.475Z,8.43
2018-04-17T08:32:21.066Z,15.98
2018-04-17T08:34:53.646Z,9.23
2018-04-17T08:37:26.139Z,7.87
2018-04-17T08:39:58.717Z,9.60
2018-04-17T08:42:31.922Z,10.73
2018-04-17T08:45:04.431Z,8.32
2018-04-17T08:47:36.922Z,13.32
2018-04-17T08:50:09.444Z,10.55
2018-04-17T08:52:41.962Z,9.00
2018-04-17T08:55:14.479Z,11.77
2018-04-17T08:57:47.030Z,8.70
2018-04-17T09:00:19.548Z,12.37
2018-04-17T09:02:52.046Z,11.05
2018-04-17T09:05:24.559Z,12.32
2018-04-17T09:07:57.058Z,9.90
2018-04-17T09:10:29.724Z,8.73
2018-04-17T09:13:02.515Z,17.70
2018-04-17T09:15:35.048Z,11.12
2018-04-17T09:18:07.614Z,13.77
2018-04-17T09:20:40.135Z,14.87
2018-04-17T09:23:12.636Z,13.98
2018-04-17T09:25:45.163Z,12.43
2018-04-17T09:28:17.656Z,9.18
2018-04-17T09:30:50.175Z,12.40
2018-04-17T09:33:22.699Z,11.45
2018-04-17T09:35:55.219Z,7.37
2018-04-17T09:38:27.804Z,12.35
2018-04-17T09:41:01.159Z,11.88
2018-04-17T09:43:33.663Z,11.32
2018-04-17T09:46:06.179Z,15.13
2018-04-17T09:48:38.672Z,9.05
2018-04-17T09:51:11.187Z,7.87
2018-04-17T09:53:43.681Z,11.98
2018-04-17T09:56:16.195Z,9.70
2018-04-17T09:58:48.696Z,11.43
2018-04-17T10:01:22.099Z,10.45
2018-04-17T10:03:54.582Z,10.55
2018-04-17T10:06:27.104Z,10.32
2018-04-17T10:09:00.401Z,10.60
2018-04-17T10:11:32.795Z,10.75
2018-04-17T10:14:05.299Z,13.88
2018-04-17T10:16:37.830Z,7.47
2018-04-17T10:19:10.403Z,9.10
2018-04-17T10:21:42.916Z,9.45
2018-04-17T10:24:15.463Z,11.15
2018-04-17T10:26:47.981Z,8.88
2018-04-17T10:29:20.491Z,11.00
2018-04-17T10:31:52.978Z,9.80
2018-04-17T10:34:25.500Z,9.63
2018-04-17T10:36:58.083Z,11.77
2018-04-17T10:39:30.932Z,10.23
2018-04-17T10:42:03.422Z,11.88
2018-04-17T10:44:35.961Z,10.02
2018-04-17T10:47:08.464Z,10.82
2018-04-17T10:49:41.023Z,10.45
2018-04-17T10:52:13.611Z,10.75
2018-04-17T10:54:46.131Z,10.35
2018-04-17T10:57:18.629Z,8.88
2018-04-17T10:59:51.164Z,12.30
2018-04-17T11:02:23.662Z,8.15
2018-04-17T11:04:56.180Z,12.23
2018-04-17T11:07:28.678Z,11.48
2018-04-17T11:10:01.880Z,9.10
2018-04-17T11:12:34.370Z,7.40
2018-04-17T11:15:06.893Z,9.85
2018-04-17T11:17:39.388Z,9.85
2018-04-17T11:20:11.963Z,11.82
2018-04-17T11:22:44.458Z,11.27
2018-04-17T11:25:16.967Z,6.87
2018-04-17T11:27:49.507Z,8.70
2018-04-17T11:30:22.096Z,7.20
2018-04-17T11:32:54.598Z,11.07
2018-04-17T11:35:27.119Z,13.18
2018-04-17T11:37:59.904Z,9.23
2018-04-17T11:40:32.423Z,7.47
2018-04-17T11:43:04.917Z,10.05
2018-04-17T11:45:37.454Z,10.52
2018-04-17T11:48:10.063Z,9.77
2018-04-17T11:50:42.574Z,9.10
2018-04-17T11:53:15.061Z,9.45
2018-04-17T11:55:47.576Z,10.43
2018-04-17T11:58:20.071Z,13.30
2018-04-17T12:00:52.588Z,16.60
2018-04-17T12:03:25.083Z,8.65
2018-04-17T12:05:57.612Z,12.90
2018-04-17T12:08:30.238Z,9.90
2018-04-17T12:11:02.763Z,8.57
2018-04-17T12:13:35.280Z,10.00
2018-04-17T12:16:07.829Z,10.73
2018-04-17T12:18:40.334Z,10.15
2018-04-17T12:21:12.848Z,9.43
2018-04-17T12:23:45.342Z,10.57
2018-04-17T12:26:17.863Z,8.65
2018-04-17T12:28:50.351Z,9.40
2018-04-17T12:31:22.902Z,10.27
2018-04-17T12:33:55.400Z,7.90
2018-04-17T12:36:27.911Z,6.65
2018-04-17T12:39:00.970Z,9.85
2018-04-17T12:41:33.488Z,10.65
2018-04-17T12:44:06.079Z,11.10
2018-04-17T12:46:38.601Z,10.27
2018-04-17T12:49:11.091Z,11.00
2018-04-17T12:51:43.625Z,9.35
2018-04-17T12:54:16.124Z,11.68
2018-04-17T12:56:48.709Z,8.35
2018-04-17T12:59:21.196Z,6.95
2018-04-17T13:01:53.717Z,10.88
2018-04-17T13:04:26.255Z,9.27
2018-04-17T13:06:58.767Z,9.57
2018-04-17T13:09:32.236Z,7.75
2018-04-17T13:12:04.827Z,9.10
2018-04-17T13:14:37.420Z,8.90
2018-04-17T13:17:10.011Z,9.73
2018-04-17T13:19:42.588Z,8.80
2018-04-17T13:22:16.890Z,10.82
2018-04-17T13:24:49.393Z,9.95
2018-04-17T13:27:21.911Z,6.78
2018-04-17T13:29:54.470Z,7.97
2018-04-17T13:32:27.055Z,11.15
2018-04-17T13:34:59.819Z,10.15
2018-04-17T13:37:32.436Z,10.35
2018-04-17T13:40:05.029Z,9.32
2018-04-17T13:42:37.552Z,9.10
2018-04-17T13:45:10.099Z,8.38
2018-04-17T13:47:42.604Z,6.57
2018-04-17T13:50:15.159Z,8.43
2018-04-17T13:52:47.661Z,8.90
2018-04-17T13:55:20.185Z,8.43
2018-04-17T13:57:52.680Z,8.68
2018-04-17T14:00:25.193Z,9.45
2018-04-17T14:02:57.776Z,9.10
2018-04-17T14:05:30.941Z,8.38
2018-04-17T14:08:03.480Z,9.48
2018-04-17T14:10:36.032Z,9.98
2018-04-17T14:13:08.632Z,8.95
2018-04-17T14:15:41.151Z,9.82
2018-04-17T14:18:13.649Z,5.37
2018-04-17T14:20:46.171Z,8.57
2018-04-17T14:23:18.671Z,7.65
2018-04-17T14:25:51.196Z,9.05
2018-04-17T14:28:23.691Z,9.80
2018-04-17T14:30:56.235Z,9.77
2018-04-17T14:33:28.765Z,6.72
2018-04-17T14:36:02.118Z,10.02
2018-04-17T14:38:34.611Z,7.65
2018-04-17T14:41:07.171Z,7.12
2018-04-17T14:43:39.727Z,10.35
2018-04-17T14:46:12.488Z,7.95
2018-04-17T14:48:45.000Z,9.55
2018-04-17T14:51:17.520Z,7.45
2018-04-17T14:53:50.015Z,9.40
2018-04-17T14:56:22.525Z,9.65
2018-04-17T14:58:55.100Z,6.68
2018-04-17T15:01:27.670Z,9.13
2018-04-17T15:04:00.220Z,8.68
2018-04-17T15:06:32.745Z,10.20
2018-04-17T15:09:07.194Z,8.80
2018-04-17T15:11:39.774Z,6.25
2018-04-17T15:14:12.269Z,8.73
2018-04-17T15:16:44.793Z,4.80
2018-04-17T15:19:17.298Z,7.32
2018-04-17T15:21:50.523Z,6.80
2018-04-17T15:24:23.019Z,8.25
2018-04-17T15:26:55.527Z,9.32
2018-04-17T15:29:28.016Z,9.55
2018-04-17T15:32:00.866Z,6.07
2018-04-17T15:34:33.374Z,10.05
2018-04-17T15:37:05.882Z,7.32
2018-04-17T15:39:38.428Z,6.35
2018-04-17T15:42:11.010Z,9.55
2018-04-17T15:44:43.595Z,9.63
2018-04-17T15:47:16.184Z,6.15
2018-04-17T15:49:48.681Z,5.53
2018-04-17T15:52:21.200Z,7.53
2018-04-17T15:54:53.690Z,6.70
2018-04-17T15:57:26.203Z,7.62
2018-04-17T15:59:58.702Z,6.25
2018-04-17T16:02:31.804Z,6.55
2018-04-17T16:05:04.299Z,7.90
2018-04-17T16:07:36.890Z,8.00
2018-04-17T16:10:09.488Z,11.15
2018-04-17T16:12:42.018Z,6.93
2018-04-17T16:15:14.520Z,5.97
2018-04-17T16:17:47.329Z,6.72
2018-04-17T16:20:20.256Z,7.25
2018-04-17T16:22:52.960Z,10.75
2018-04-17T16:25:25.479Z,8.45
2018-04-17T16:27:58.002Z,8.95
2018-04-17T16:30:30.854Z,11.27
2018-04-17T16:33:03.441Z,7.37
2018-04-17T16:35:36.045Z,6.90
2018-04-17T16:38:08.551Z,6.37
2018-04-17T16:40:41.097Z,5.80
2018-04-17T16:43:13.623Z,11.52
2018-04-17T16:45:46.128Z,7.30
2018-04-17T16:48:18.650Z,4.53
2018-04-17T16:50:51.365Z,7.10
2018-04-17T16:53:24.182Z,6.00
2018-04-17T16:55:56.760Z,6.60
2018-04-17T16:58:30.170Z,5.55
2018-04-17T17:01:02.815Z,5.80
2018-04-17T17:03:35.401Z,7.60
2018-04-17T17:06:07.983Z,7.57
2018-04-17T17:08:40.494Z,5.05
2018-04-17T17:11:13.091Z,4.03
2018-04-17T17:13:45.696Z,3.05
2018-04-17T17:16:18.224Z,4.55
2018-04-17T17:18:50.716Z,6.65
2018-04-17T17:21:23.227Z,5.93
2018-04-17T17:23:55.717Z,4.25
2018-04-17T17:26:28.239Z,7.65
2018-04-17T17:29:00.733Z,8.10
2018-04-17T17:31:33.270Z,5.55
2018-04-17T17:34:05.763Z,6.75
2018-04-17T17:36:38.272Z,6.53
2018-04-17T17:39:10.776Z,5.25
2018-04-17T17:41:43.300Z,7.25
2018-04-17T17:44:15.795Z,5.90
2018-04-17T17:46:48.452Z,5.87
2018-04-17T17:49:20.968Z,4.35
2018-04-17T17:51:53.475Z,7.40
2018-04-17T17:54:25.968Z,7.57
2018-04-17T17:56:58.510Z,5.93
2018-04-17T17:59:31.978Z,5.45
2018-04-17T18:02:04.499Z,9.27
2018-04-17T18:04:37.023Z,7.28
2018-04-17T18:07:09.560Z,6.55
2018-04-17T18:09:42.054Z,9.10
2018-04-17T18:12:15.005Z,5.85
2018-04-17T18:14:47.697Z,6.50
2018-04-17T18:17:20.404Z,6.65
2018-04-17T18:19:55.394Z,6.62
2018-04-17T18:22:27.903Z,7.45
2018-04-17T18:25:01.607Z,5.53
2018-04-17T18:27:34.153Z,8.88
2018-04-17T18:30:06.684Z,5.32
2018-04-17T18:32:39.230Z,7.22
2018-04-17T18:35:11.760Z,7.18
2018-04-17T18:37:44.343Z,6.05
2018-04-17T18:40:16.843Z,5.97
2018-04-17T18:42:49.421Z,5.65
2018-04-17T18:45:21.939Z,4.50
2018-04-17T18:47:54.479Z,7.15
2018-04-17T18:50:27.081Z,6.85
2018-04-17T18:53:00.014Z,9.43
2018-04-17T18:55:32.540Z,3.90
2018-04-17T18:58:05.067Z,8.00
2018-04-17T19:00:37.604Z,4.90
2018-04-17T19:03:10.167Z,13.98
2018-04-17T19:05:42.648Z,5.78
2018-04-17T19:08:15.154Z,7.25
2018-04-17T19:10:47.643Z,7.57
2018-04-17T19:13:20.147Z,5.53
2018-04-17T19:15:52.719Z,6.65
2018-04-17T19:18:25.310Z,6.55
2018-04-17T19:20:58.366Z,5.20
2018-04-17T19:23:30.923Z,5.90
2018-04-17T19:26:03.416Z,6.60
2018-04-17T19:28:35.949Z,10.20
2018-04-17T19:31:08.471Z,4.57
2018-04-17T19:33:40.991Z,6.03
2018-04-17T19:36:13.482Z,5.80
2018-04-17T19:38:45.988Z,4.57
2018-04-17T19:41:18.476Z,7.22
2018-04-17T19:43:50.991Z,5.78
2018-04-17T19:46:23.549Z,10.10
2018-04-17T19:48:56.070Z,6.10
2018-04-17T19:51:28.608Z,6.10
2018-04-17T19:54:01.719Z,6.75
2018-04-17T19:56:38.498Z,4.70
2018-04-17T19:59:11.130Z,6.12
2018-04-17T20:01:43.627Z,5.37
2018-04-17T20:04:16.154Z,4.50
2018-04-17T20:06:48.697Z,5.80
2018-04-17T20:09:21.291Z,5.78
2018-04-17T20:11:53.799Z,8.73
2018-04-17T20:14:26.325Z,7.57
2018-04-17T20:16:58.875Z,8.00
2018-04-17T20:19:32.546Z,6.43
2018-04-17T20:22:05.073Z,6.75
2018-04-17T20:24:37.643Z,5.70
2018-04-17T20:27:10.247Z,8.10
2018-04-17T20:29:42.766Z,8.25
2018-04-17T20:32:15.258Z,7.00
2018-04-17T20:34:47.788Z,8.43
2018-04-17T20:37:20.270Z,7.57
2018-04-17T20:39:52.777Z,10.20
2018-04-17T20:42:25.272Z,5.90
2018-04-17T20:44:57.788Z,7.97
2018-04-17T20:47:30.659Z,5.40
2018-04-17T20:50:03.170Z,5.03
2018-04-17T20:52:35.691Z,7.47
2018-04-17T20:55:08.205Z,9.60
2018-04-17T20:57:40.694Z,8.63
2018-04-17T21:00:13.209Z,9.02
2018-04-17T21:02:45.729Z,10.05
2018-04-17T21:05:18.240Z,6.55
2018-04-17T21:07:50.732Z,7.32
2018-04-17T21:10:23.243Z,5.45
2018-04-17T21:12:55.770Z,7.40
2018-04-17T21:15:28.444Z,4.60
2018-04-17T21:18:00.934Z,7.45
2018-04-17T21:20:33.447Z,8.02
2018-04-17T21:23:05.947Z,7.07
2018-04-17T21:25:38.482Z,4.60
2018-04-17T21:28:11.075Z,9.38
2018-04-17T21:30:43.650Z,7.28
2018-04-17T21:33:16.135Z,8.25
2018-04-17T21:35:48.654Z,6.07
2018-04-17T21:38:21.150Z,6.75
2018-04-17T21:40:53.685Z,7.15
2018-04-17T21:43:26.179Z,8.13
2018-04-17T21:45:58.760Z,11.40
2018-04-17T21:48:31.847Z,10.10
2018-04-17T21:51:04.362Z,9.05
2018-04-17T21:53:36.862Z,6.15
2018-04-17T21:56:09.517Z,7.32
2018-04-17T21:58:42.023Z,6.53
2018-04-17T22:01:14.578Z,7.90
2018-04-17T22:03:47.162Z,6.78
2018-04-17T22:06:19.683Z,6.75
2018-04-17T22:08:52.176Z,7.18
2018-04-17T22:11:24.697Z,10.80
2018-04-17T22:13:57.191Z,10.23
2018-04-17T22:16:29.784Z,5.83
2018-04-17T22:19:02.294Z,6.63
2018-04-17T22:21:34.807Z,7.50
2018-04-17T22:24:07.305Z,8.83
2018-04-17T22:26:39.832Z,5.33
2018-04-17T22:29:12.409Z,4.87
2018-04-17T22:31:44.996Z,5.70
2018-04-17T22:34:17.623Z,7.60
2018-04-17T22:36:50.201Z,6.17
2018-04-17T22:39:22.731Z,7.70
2018-04-17T22:41:55.304Z,6.70
2018-04-17T22:44:27.831Z,7.83
2018-04-17T22:47:01.257Z,8.30
2018-04-17T22:49:33.804Z,7.80
2018-04-17T22:52:06.337Z,10.80
2018-04-17T22:54:38.853Z,11.20
2018-04-17T22:57:11.365Z,5.57
2018-04-17T22:59:43.853Z,8.33
2018-04-17T23:02:16.361Z,7.47
2018-04-17T23:04:48.935Z,9.60
2018-04-17T23:07:21.523Z,9.13
2018-04-17T23:09:54.018Z,7.83
2018-04-17T23:12:26.535Z,8.63
2018-04-17T23:14:59.033Z,8.77
2018-04-17T23:17:32.267Z,6.83
2018-04-17T23:20:04.812Z,8.50
2018-04-17T23:22:37.332Z,5.40
2018-04-17T23:25:10.042Z,11.03
2018-04-17T23:27:42.555Z,8.20
2018-04-17T23:30:15.106Z,8.93
2018-04-17T23:32:47.705Z,6.03
2018-04-17T23:35:20.224Z,9.50
2018-04-17T23:37:52.744Z,8.97
2018-04-17T23:40:25.240Z,7.73
2018-04-17T23:42:57.751Z,7.33
2018-04-17T23:45:30.695Z,7.57
2018-04-17T23:48:03.215Z,5.50
2018-04-17T23:50:35.712Z,10.40
2018-04-17T23:53:08.286Z,14.23
2018-04-17T23:55:40.788Z,6.37
2018-04-17T23:58:13.288Z,7.40
